sensor_id;sensor_type;location;lat;lon;timestamp;P1;durP1;ratioP1;P2;durP2;ratioP2
34278;SDS011;20538;51.528;9.942;2023-07-20T00:01:28;13.70;;;5.75;;
34278;SDS011;20538;51.528;9.942;2023-07-20T00:03:54;8.07;;;4.78;;
34278;SDS011;20538;51.528;9.942;2023-07-20T00:06:23;9.15;;;5.75;;
34278;SDS011;20538;51.528;9.942;2023-07-20T00:08:50;8.55;;;5.53;;
34278;SDS011;20538;51.528;9.942;2023-07-20T00:11:16;11.07;;;5.40;;
34278;SDS011;20538;51.528;9.942;2023-07-20T00:13:42;9.98;;;5.00;;
34278;SDS011;20538;51.528;9.942;2023-07-20T00:16:08;8.57;;;5.80;;
34278;SDS011;20538;51.528;9.942;2023-07-20T00:18:34;8.63;;;5.80;;
34278;SDS011;20538;51.528;9.942;2023-07-20T00:20:59;10.80;;;6.63;;
34278;SDS011;20538;51.528;9.942;2023-07-20T00:23:25;11.43;;;6.78;;
34278;SDS011;20538;51.528;9.942;2023-07-20T00:25:51;12.68;;;5.55;;
34278;SDS011;20538;51.528;9.942;2023-07-20T00:28:17;8.75;;;4.45;;
34278;SDS011;20538;51.528;9.942;2023-07-20T00:30:42;5.07;;;2.80;;
34278;SDS011;20538;51.528;9.942;2023-07-20T00:33:11;3.72;;;1.70;;
34278;SDS011;20538;51.528;9.942;2023-07-20T00:35:37;2.80;;;1.10;;
34278;SDS011;20538;51.528;9.942;2023-07-20T00:38:04;3.30;;;1.20;;
34278;SDS011;20538;51.528;9.942;2023-07-20T00:40:36;4.10;;;1.30;;
34278;SDS011;20538;51.528;9.942;2023-07-20T00:43:02;3.17;;;1.48;;
34278;SDS011;20538;51.528;9.942;2023-07-20T00:45:28;3.25;;;1.20;;
34278;SDS011;20538;51.528;9.942;2023-07-20T00:47:54;1.50;;;1.30;;
34278;SDS011;20538;51.528;9.942;2023-07-20T00:50:20;3.95;;;1.60;;
34278;SDS011;20538;51.528;9.942;2023-07-20T00:52:46;3.15;;;1.30;;
34278;SDS011;20538;51.528;9.942;2023-07-20T00:55:12;8.13;;;2.25;;
34278;SDS011;20538;51.528;9.942;2023-07-20T00:57:38;4.25;;;1.65;;
34278;SDS011;20538;51.528;9.942;2023-07-20T01:00:04;2.80;;;1.33;;
34278;SDS011;20538;51.528;9.942;2023-07-20T01:02:31;3.40;;;1.20;;
34278;SDS011;20538;51.528;9.942;2023-07-20T01:04:57;3.17;;;1.25;;
34278;SDS011;20538;51.528;9.942;2023-07-20T01:10:08;4.65;;;1.83;;
34278;SDS011;20538;51.528;9.942;2023-07-20T01:12:41;3.78;;;1.30;;
34278;SDS011;20538;51.528;9.942;2023-07-20T01:15:08;2.72;;;1.30;;
34278;SDS011;20538;51.528;9.942;2023-07-20T01:17:34;4.05;;;1.48;;
34278;SDS011;20538;51.528;9.942;2023-07-20T01:20:00;3.97;;;1.73;;
34278;SDS011;20538;51.528;9.942;2023-07-20T01:33:43;2.70;;;2.10;;
34278;SDS011;20538;51.528;9.942;2023-07-20T01:36:11;3.80;;;2.17;;
34278;SDS011;20538;51.528;9.942;2023-07-20T01:38:37;4.35;;;1.88;;
34278;SDS011;20538;51.528;9.942;2023-07-20T01:41:03;5.25;;;2.20;;
34278;SDS011;20538;51.528;9.942;2023-07-20T01:43:30;5.03;;;2.45;;
34278;SDS011;20538;51.528;9.942;2023-07-20T01:45:56;4.32;;;2.58;;
34278;SDS011;20538;51.528;9.942;2023-07-20T01:48:22;5.60;;;2.78;;
34278;SDS011;20538;51.528;9.942;2023-07-20T01:50:47;5.72;;;2.78;;
34278;SDS011;20538;51.528;9.942;2023-07-20T01:53:13;3.83;;;3.10;;
34278;SDS011;20538;51.528;9.942;2023-07-20T01:55:39;3.55;;;2.63;;
34278;SDS011;20538;51.528;9.942;2023-07-20T01:58:04;6.90;;;3.00;;
34278;SDS011;20538;51.528;9.942;2023-07-20T02:00:31;3.78;;;2.90;;
34278;SDS011;20538;51.528;9.942;2023-07-20T02:02:56;5.28;;;3.10;;
34278;SDS011;20538;51.528;9.942;2023-07-20T02:05:22;5.60;;;3.38;;
34278;SDS011;20538;51.528;9.942;2023-07-20T02:07:48;5.47;;;3.40;;
34278;SDS011;20538;51.528;9.942;2023-07-20T02:10:13;5.10;;;3.22;;
34278;SDS011;20538;51.528;9.942;2023-07-20T02:12:39;5.93;;;3.33;;
34278;SDS011;20538;51.528;9.942;2023-07-20T02:15:05;3.97;;;2.90;;
34278;SDS011;20538;51.528;9.942;2023-07-20T02:17:31;5.85;;;2.88;;
34278;SDS011;20538;51.528;9.942;2023-07-20T02:19:56;4.32;;;2.80;;
34278;SDS011;20538;51.528;9.942;2023-07-20T02:22:25;2.95;;;2.60;;
34278;SDS011;20538;51.528;9.942;2023-07-20T02:24:51;5.93;;;3.00;;
34278;SDS011;20538;51.528;9.942;2023-07-20T02:27:16;3.75;;;2.75;;
34278;SDS011;20538;51.528;9.942;2023-07-20T02:29:42;3.88;;;3.28;;
34278;SDS011;20538;51.528;9.942;2023-07-20T02:32:08;8.95;;;3.80;;
34278;SDS011;20538;51.528;9.942;2023-07-20T02:34:36;5.28;;;3.53;;
34278;SDS011;20538;51.528;9.942;2023-07-20T02:37:02;7.63;;;3.20;;
34278;SDS011;20538;51.528;9.942;2023-07-20T02:39:28;4.03;;;3.05;;
34278;SDS011;20538;51.528;9.942;2023-07-20T02:41:54;3.75;;;3.35;;
34278;SDS011;20538;51.528;9.942;2023-07-20T02:44:19;5.82;;;4.13;;
34278;SDS011;20538;51.528;9.942;2023-07-20T02:46:45;5.93;;;3.80;;
34278;SDS011;20538;51.528;9.942;2023-07-20T02:49:11;4.60;;;3.90;;
34278;SDS011;20538;51.528;9.942;2023-07-20T02:51:36;5.25;;;3.80;;
34278;SDS011;20538;51.528;9.942;2023-07-20T02:54:02;6.75;;;4.40;;
34278;SDS011;20538;51.528;9.942;2023-07-20T02:56:28;7.68;;;4.57;;
34278;SDS011;20538;51.528;9.942;2023-07-20T02:58:54;10.18;;;4.60;;
34278;SDS011;20538;51.528;9.942;2023-07-20T03:01:20;19.17;;;8.13;;
34278;SDS011;20538;51.528;9.942;2023-07-20T03:03:45;6.68;;;4.13;;
34278;SDS011;20538;51.528;9.942;2023-07-20T03:06:14;7.55;;;3.90;;
34278;SDS011;20538;51.528;9.942;2023-07-20T03:08:41;6.28;;;3.90;;
34278;SDS011;20538;51.528;9.942;2023-07-20T03:11:10;5.28;;;4.05;;
34278;SDS011;20538;51.528;9.942;2023-07-20T03:13:36;8.45;;;4.07;;
34278;SDS011;20538;51.528;9.942;2023-07-20T03:16:01;7.43;;;3.80;;
34278;SDS011;20538;51.528;9.942;2023-07-20T03:18:27;9.57;;;4.07;;
34278;SDS011;20538;51.528;9.942;2023-07-20T03:20:52;5.38;;;4.03;;
34278;SDS011;20538;51.528;9.942;2023-07-20T03:23:18;6.22;;;3.58;;
34278;SDS011;20538;51.528;9.942;2023-07-20T03:25:43;5.53;;;4.13;;
34278;SDS011;20538;51.528;9.942;2023-07-20T03:28:09;5.55;;;4.35;;
34278;SDS011;20538;51.528;9.942;2023-07-20T03:30:35;6.95;;;3.85;;
34278;SDS011;20538;51.528;9.942;2023-07-20T03:33:00;7.00;;;3.78;;
34278;SDS011;20538;51.528;9.942;2023-07-20T03:35:26;8.68;;;3.60;;
34278;SDS011;20538;51.528;9.942;2023-07-20T03:37:51;4.88;;;3.75;;
34278;SDS011;20538;51.528;9.942;2023-07-20T03:40:17;6.57;;;4.13;;
34278;SDS011;20538;51.528;9.942;2023-07-20T03:42:43;5.88;;;3.92;;
34278;SDS011;20538;51.528;9.942;2023-07-20T03:45:08;5.28;;;4.00;;
34278;SDS011;20538;51.528;9.942;2023-07-20T03:47:34;6.55;;;3.70;;
34278;SDS011;20538;51.528;9.942;2023-07-20T03:50:00;5.00;;;3.92;;
34278;SDS011;20538;51.528;9.942;2023-07-20T03:52:25;6.72;;;3.75;;
34278;SDS011;20538;51.528;9.942;2023-07-20T03:54:51;6.88;;;4.53;;
34278;SDS011;20538;51.528;9.942;2023-07-20T03:57:17;6.20;;;4.28;;
34278;SDS011;20538;51.528;9.942;2023-07-20T03:59:44;4.32;;;3.88;;
34278;SDS011;20538;51.528;9.942;2023-07-20T04:02:11;7.97;;;4.30;;
34278;SDS011;20538;51.528;9.942;2023-07-20T04:04:37;7.22;;;4.13;;
34278;SDS011;20538;51.528;9.942;2023-07-20T04:07:02;5.90;;;4.47;;
34278;SDS011;20538;51.528;9.942;2023-07-20T04:09:28;9.50;;;4.20;;
34278;SDS011;20538;51.528;9.942;2023-07-20T04:11:56;5.35;;;4.70;;
34278;SDS011;20538;51.528;9.942;2023-07-20T04:14:22;7.45;;;4.20;;
34278;SDS011;20538;51.528;9.942;2023-07-20T04:16:47;7.30;;;4.38;;
34278;SDS011;20538;51.528;9.942;2023-07-20T04:19:13;6.07;;;4.07;;
34278;SDS011;20538;51.528;9.942;2023-07-20T04:21:39;5.93;;;4.53;;
34278;SDS011;20538;51.528;9.942;2023-07-20T04:24:08;7.68;;;4.13;;
34278;SDS011;20538;51.528;9.942;2023-07-20T04:26:33;5.47;;;4.40;;
34278;SDS011;20538;51.528;9.942;2023-07-20T04:29:00;6.10;;;4.38;;
34278;SDS011;20538;51.528;9.942;2023-07-20T04:31:26;6.07;;;4.43;;
34278;SDS011;20538;51.528;9.942;2023-07-20T04:33:51;5.50;;;4.25;;
34278;SDS011;20538;51.528;9.942;2023-07-20T04:36:17;5.18;;;4.68;;
34278;SDS011;20538;51.528;9.942;2023-07-20T04:38:44;6.70;;;4.22;;
34278;SDS011;20538;51.528;9.942;2023-07-20T04:41:11;7.05;;;4.90;;
34278;SDS011;20538;51.528;9.942;2023-07-20T04:43:42;9.65;;;5.07;;
34278;SDS011;20538;51.528;9.942;2023-07-20T04:46:09;9.32;;;5.47;;
34278;SDS011;20538;51.528;9.942;2023-07-20T04:48:35;8.60;;;5.40;;
34278;SDS011;20538;51.528;9.942;2023-07-20T04:51:01;7.15;;;5.40;;
34278;SDS011;20538;51.528;9.942;2023-07-20T04:53:27;7.63;;;5.70;;
34278;SDS011;20538;51.528;9.942;2023-07-20T04:55:53;6.40;;;5.35;;
34278;SDS011;20538;51.528;9.942;2023-07-20T04:58:19;7.15;;;5.30;;
34278;SDS011;20538;51.528;9.942;2023-07-20T05:00:46;9.10;;;6.10;;
34278;SDS011;20538;51.528;9.942;2023-07-20T05:03:13;8.05;;;6.38;;
34278;SDS011;20538;51.528;9.942;2023-07-20T05:05:38;9.73;;;6.60;;
34278;SDS011;20538;51.528;9.942;2023-07-20T05:08:04;7.63;;;6.28;;
34278;SDS011;20538;51.528;9.942;2023-07-20T05:10:30;7.95;;;5.95;;
34278;SDS011;20538;51.528;9.942;2023-07-20T05:12:55;9.98;;;6.07;;
34278;SDS011;20538;51.528;9.942;2023-07-20T05:15:21;9.05;;;6.78;;
34278;SDS011;20538;51.528;9.942;2023-07-20T05:17:47;15.68;;;6.97;;
34278;SDS011;20538;51.528;9.942;2023-07-20T05:20:13;8.63;;;6.22;;
34278;SDS011;20538;51.528;9.942;2023-07-20T05:22:39;10.05;;;6.78;;
34278;SDS011;20538;51.528;9.942;2023-07-20T05:25:06;10.95;;;7.65;;
34278;SDS011;20538;51.528;9.942;2023-07-20T05:27:33;10.32;;;7.20;;
34278;SDS011;20538;51.528;9.942;2023-07-20T05:29:59;13.10;;;7.22;;
34278;SDS011;20538;51.528;9.942;2023-07-20T05:32:25;9.15;;;6.93;;
34278;SDS011;20538;51.528;9.942;2023-07-20T05:34:52;9.75;;;7.25;;
34278;SDS011;20538;51.528;9.942;2023-07-20T05:37:18;11.50;;;7.65;;
34278;SDS011;20538;51.528;9.942;2023-07-20T05:39:44;11.65;;;7.60;;
34278;SDS011;20538;51.528;9.942;2023-07-20T05:42:09;15.88;;;7.85;;
34278;SDS011;20538;51.528;9.942;2023-07-20T05:44:35;13.50;;;7.80;;
34278;SDS011;20538;51.528;9.942;2023-07-20T05:47:01;11.38;;;7.75;;
34278;SDS011;20538;51.528;9.942;2023-07-20T05:49:27;8.70;;;6.55;;
34278;SDS011;20538;51.528;9.942;2023-07-20T05:51:54;13.45;;;7.60;;
34278;SDS011;20538;51.528;9.942;2023-07-20T05:54:25;11.50;;;7.55;;
34278;SDS011;20538;51.528;9.942;2023-07-20T05:56:51;11.63;;;7.70;;
34278;SDS011;20538;51.528;9.942;2023-07-20T05:59:18;13.32;;;8.18;;
34278;SDS011;20538;51.528;9.942;2023-07-20T06:01:44;10.07;;;8.40;;
34278;SDS011;20538;51.528;9.942;2023-07-20T06:04:12;13.20;;;8.65;;
34278;SDS011;20538;51.528;9.942;2023-07-20T06:06:37;12.95;;;9.02;;
34278;SDS011;20538;51.528;9.942;2023-07-20T06:09:03;14.30;;;8.80;;
34278;SDS011;20538;51.528;9.942;2023-07-20T06:11:29;10.55;;;8.70;;
34278;SDS011;20538;51.528;9.942;2023-07-20T06:13:56;11.02;;;8.73;;
34278;SDS011;20538;51.528;9.942;2023-07-20T06:16:22;13.20;;;9.70;;
34278;SDS011;20538;51.528;9.942;2023-07-20T06:18:47;17.33;;;10.25;;
34278;SDS011;20538;51.528;9.942;2023-07-20T06:21:13;17.20;;;10.57;;
34278;SDS011;20538;51.528;9.942;2023-07-20T06:23:39;15.60;;;11.18;;
34278;SDS011;20538;51.528;9.942;2023-07-20T06:26:06;14.25;;;10.45;;
34278;SDS011;20538;51.528;9.942;2023-07-20T06:28:32;17.48;;;10.13;;
34278;SDS011;20538;51.528;9.942;2023-07-20T06:30:59;19.10;;;12.00;;
34278;SDS011;20538;51.528;9.942;2023-07-20T06:33:25;20.42;;;12.30;;
34278;SDS011;20538;51.528;9.942;2023-07-20T06:35:51;15.52;;;10.95;;
34278;SDS011;20538;51.528;9.942;2023-07-20T06:38:17;15.52;;;11.02;;
34278;SDS011;20538;51.528;9.942;2023-07-20T06:40:45;16.52;;;11.88;;
34278;SDS011;20538;51.528;9.942;2023-07-20T06:43:11;17.65;;;11.77;;
34278;SDS011;20538;51.528;9.942;2023-07-20T06:45:37;16.60;;;11.13;;
34278;SDS011;20538;51.528;9.942;2023-07-20T06:48:03;18.40;;;10.73;;
34278;SDS011;20538;51.528;9.942;2023-07-20T06:50:29;17.30;;;11.50;;
34278;SDS011;20538;51.528;9.942;2023-07-20T06:52:54;14.43;;;10.55;;
34278;SDS011;20538;51.528;9.942;2023-07-20T06:55:20;26.00;;;11.43;;
34278;SDS011;20538;51.528;9.942;2023-07-20T06:57:46;15.88;;;10.95;;
34278;SDS011;20538;51.528;9.942;2023-07-20T07:00:12;15.57;;;10.23;;
34278;SDS011;20538;51.528;9.942;2023-07-20T07:02:38;13.63;;;10.18;;
34278;SDS011;20538;51.528;9.942;2023-07-20T07:05:04;15.30;;;8.27;;
34278;SDS011;20538;51.528;9.942;2023-07-20T07:07:30;14.68;;;9.07;;
34278;SDS011;20538;51.528;9.942;2023-07-20T07:09:55;10.10;;;7.93;;
34278;SDS011;20538;51.528;9.942;2023-07-20T07:12:21;11.30;;;8.05;;
34278;SDS011;20538;51.528;9.942;2023-07-20T07:14:47;8.95;;;7.82;;
34278;SDS011;20538;51.528;9.942;2023-07-20T07:17:12;11.70;;;7.43;;
34278;SDS011;20538;51.528;9.942;2023-07-20T07:19:39;11.88;;;8.30;;
34278;SDS011;20538;51.528;9.942;2023-07-20T07:22:05;13.10;;;8.82;;
34278;SDS011;20538;51.528;9.942;2023-07-20T07:24:31;11.30;;;7.47;;
34278;SDS011;20538;51.528;9.942;2023-07-20T07:26:59;11.27;;;8.68;;
34278;SDS011;20538;51.528;9.942;2023-07-20T07:29:26;12.85;;;7.00;;
34278;SDS011;20538;51.528;9.942;2023-07-20T07:31:51;7.90;;;6.18;;
34278;SDS011;20538;51.528;9.942;2023-07-20T07:34:17;7.75;;;5.97;;
34278;SDS011;20538;51.528;9.942;2023-07-20T07:36:43;8.35;;;5.50;;
34278;SDS011;20538;51.528;9.942;2023-07-20T07:39:09;8.98;;;6.18;;
34278;SDS011;20538;51.528;9.942;2023-07-20T07:41:35;8.45;;;4.80;;
34278;SDS011;20538;51.528;9.942;2023-07-20T07:44:01;6.97;;;4.03;;
34278;SDS011;20538;51.528;9.942;2023-07-20T07:46:26;6.07;;;4.43;;
34278;SDS011;20538;51.528;9.942;2023-07-20T07:48:52;9.32;;;4.28;;
34278;SDS011;20538;51.528;9.942;2023-07-20T07:51:18;5.45;;;4.25;;
34278;SDS011;20538;51.528;9.942;2023-07-20T07:53:45;7.00;;;3.90;;
34278;SDS011;20538;51.528;9.942;2023-07-20T07:56:11;7.05;;;4.53;;
34278;SDS011;20538;51.528;9.942;2023-07-20T07:58:36;4.88;;;4.05;;
34278;SDS011;20538;51.528;9.942;2023-07-20T08:01:02;5.70;;;4.60;;
34278;SDS011;20538;51.528;9.942;2023-07-20T08:03:28;9.30;;;4.35;;
34278;SDS011;20538;51.528;9.942;2023-07-20T08:05:54;4.72;;;3.60;;
34278;SDS011;20538;51.528;9.942;2023-07-20T08:08:20;5.63;;;3.20;;
34278;SDS011;20538;51.528;9.942;2023-07-20T08:10:46;5.68;;;3.70;;
34278;SDS011;20538;51.528;9.942;2023-07-20T08:13:13;2.75;;;1.90;;
34278;SDS011;20538;51.528;9.942;2023-07-20T08:15:38;2.00;;;1.40;;
34278;SDS011;20538;51.528;9.942;2023-07-20T08:18:04;2.38;;;1.55;;
34278;SDS011;20538;51.528;9.942;2023-07-20T08:20:30;1.92;;;1.50;;
34278;SDS011;20538;51.528;9.942;2023-07-20T08:22:57;4.18;;;1.65;;
34278;SDS011;20538;51.528;9.942;2023-07-20T08:25:24;5.65;;;1.67;;
34278;SDS011;20538;51.528;9.942;2023-07-20T08:27:50;1.70;;;1.20;;
34278;SDS011;20538;51.528;9.942;2023-07-20T08:30:16;6.97;;;1.25;;
34278;SDS011;20538;51.528;9.942;2023-07-20T08:32:42;4.30;;;0.95;;
34278;SDS011;20538;51.528;9.942;2023-07-20T08:35:08;2.85;;;1.10;;
34278;SDS011;20538;51.528;9.942;2023-07-20T08:37:34;1.00;;;1.00;;
34278;SDS011;20538;51.528;9.942;2023-07-20T08:39:59;2.75;;;1.00;;
34278;SDS011;20538;51.528;9.942;2023-07-20T08:42:26;1.65;;;1.23;;
34278;SDS011;20538;51.528;9.942;2023-07-20T08:44:52;1.27;;;1.13;;
34278;SDS011;20538;51.528;9.942;2023-07-20T08:47:19;2.05;;;1.17;;
34278;SDS011;20538;51.528;9.942;2023-07-20T08:49:48;3.00;;;1.30;;
34278;SDS011;20538;51.528;9.942;2023-07-20T08:52:14;1.80;;;1.25;;
34278;SDS011;20538;51.528;9.942;2023-07-20T08:54:40;5.45;;;1.60;;
34278;SDS011;20538;51.528;9.942;2023-07-20T08:57:06;4.35;;;1.63;;
34278;SDS011;20538;51.528;9.942;2023-07-20T08:59:32;2.83;;;1.30;;
34278;SDS011;20538;51.528;9.942;2023-07-20T09:02:02;1.92;;;0.90;;
34278;SDS011;20538;51.528;9.942;2023-07-20T09:04:29;1.25;;;1.10;;
34278;SDS011;20538;51.528;9.942;2023-07-20T09:06:55;2.80;;;1.10;;
34278;SDS011;20538;51.528;9.942;2023-07-20T09:09:22;2.47;;;1.23;;
34278;SDS011;20538;51.528;9.942;2023-07-20T09:11:51;2.55;;;1.30;;
34278;SDS011;20538;51.528;9.942;2023-07-20T09:14:17;1.75;;;1.15;;
34278;SDS011;20538;51.528;9.942;2023-07-20T09:16:47;1.95;;;1.30;;
34278;SDS011;20538;51.528;9.942;2023-07-20T09:19:18;3.38;;;1.40;;
34278;SDS011;20538;51.528;9.942;2023-07-20T09:21:47;1.55;;;1.00;;
34278;SDS011;20538;51.528;9.942;2023-07-20T09:24:14;2.10;;;1.25;;
34278;SDS011;20538;51.528;9.942;2023-07-20T09:26:42;3.08;;;1.60;;
34278;SDS011;20538;51.528;9.942;2023-07-20T09:29:09;2.33;;;1.05;;
34278;SDS011;20538;51.528;9.942;2023-07-20T09:31:35;1.58;;;0.98;;
34278;SDS011;20538;51.528;9.942;2023-07-20T09:34:01;2.63;;;1.20;;
34278;SDS011;20538;51.528;9.942;2023-07-20T09:36:28;1.65;;;1.20;;
34278;SDS011;20538;51.528;9.942;2023-07-20T09:38:54;15.40;;;2.30;;
34278;SDS011;20538;51.528;9.942;2023-07-20T09:41:20;1.10;;;1.00;;
34278;SDS011;20538;51.528;9.942;2023-07-20T09:43:46;3.33;;;1.30;;
34278;SDS011;20538;51.528;9.942;2023-07-20T09:46:13;2.78;;;1.10;;
34278;SDS011;20538;51.528;9.942;2023-07-20T09:48:38;2.42;;;0.98;;
34278;SDS011;20538;51.528;9.942;2023-07-20T09:51:04;2.67;;;0.95;;
34278;SDS011;20538;51.528;9.942;2023-07-20T09:53:32;1.38;;;1.13;;
34278;SDS011;20538;51.528;9.942;2023-07-20T09:55:59;1.83;;;1.23;;
34278;SDS011;20538;51.528;9.942;2023-07-20T09:58:25;1.67;;;0.98;;
34278;SDS011;20538;51.528;9.942;2023-07-20T10:00:52;1.10;;;1.00;;
34278;SDS011;20538;51.528;9.942;2023-07-20T10:03:22;1.60;;;1.02;;
34278;SDS011;20538;51.528;9.942;2023-07-20T10:06:06;2.83;;;1.00;;
34278;SDS011;20538;51.528;9.942;2023-07-20T10:08:35;1.00;;;0.90;;
34278;SDS011;20538;51.528;9.942;2023-07-20T10:11:07;0.88;;;0.88;;
34278;SDS011;20538;51.528;9.942;2023-07-20T10:13:37;1.40;;;0.90;;
34278;SDS011;20538;51.528;9.942;2023-07-20T10:16:10;1.42;;;1.00;;
34278;SDS011;20538;51.528;9.942;2023-07-20T10:18:49;1.20;;;1.10;;
34278;SDS011;20538;51.528;9.942;2023-07-20T10:21:29;1.38;;;1.17;;
34278;SDS011;20538;51.528;9.942;2023-07-20T10:23:58;1.20;;;1.10;;
34278;SDS011;20538;51.528;9.942;2023-07-20T10:26:26;0.95;;;0.85;;
34278;SDS011;20538;51.528;9.942;2023-07-20T10:28:51;1.77;;;1.27;;
34278;SDS011;20538;51.528;9.942;2023-07-20T10:31:18;0.82;;;0.82;;
34278;SDS011;20538;51.528;9.942;2023-07-20T10:33:45;1.08;;;0.80;;
34278;SDS011;20538;51.528;9.942;2023-07-20T10:36:11;2.53;;;0.70;;
34278;SDS011;20538;51.528;9.942;2023-07-20T10:41:18;1.80;;;0.90;;
34278;SDS011;20538;51.528;9.942;2023-07-20T10:43:45;1.40;;;0.90;;
34278;SDS011;20538;51.528;9.942;2023-07-20T10:46:12;1.83;;;0.90;;
34278;SDS011;20538;51.528;9.942;2023-07-20T10:51:38;0.98;;;0.85;;
34278;SDS011;20538;51.528;9.942;2023-07-20T10:56:45;3.50;;;0.60;;
34278;SDS011;20538;51.528;9.942;2023-07-20T11:01:46;0.60;;;0.60;;
34278;SDS011;20538;51.528;9.942;2023-07-20T11:04:14;2.38;;;0.80;;
34278;SDS011;20538;51.528;9.942;2023-07-20T11:06:43;0.80;;;0.80;;
34278;SDS011;20538;51.528;9.942;2023-07-20T11:09:10;0.55;;;0.50;;
34278;SDS011;20538;51.528;9.942;2023-07-20T11:11:41;1.95;;;0.80;;
34278;SDS011;20538;51.528;9.942;2023-07-20T11:14:22;0.85;;;0.60;;
34278;SDS011;20538;51.528;9.942;2023-07-20T11:16:49;0.65;;;0.50;;
34278;SDS011;20538;51.528;9.942;2023-07-20T11:19:17;1.83;;;0.52;;
34278;SDS011;20538;51.528;9.942;2023-07-20T11:21:52;2.25;;;0.57;;
34278;SDS011;20538;51.528;9.942;2023-07-20T11:24:23;0.57;;;0.50;;
34278;SDS011;20538;51.528;9.942;2023-07-20T11:26:50;1.33;;;0.70;;
34278;SDS011;20538;51.528;9.942;2023-07-20T11:29:17;1.40;;;0.90;;
34278;SDS011;20538;51.528;9.942;2023-07-20T11:31:45;0.63;;;0.60;;
34278;SDS011;20538;51.528;9.942;2023-07-20T11:34:12;0.80;;;0.65;;
34278;SDS011;20538;51.528;9.942;2023-07-20T11:36:42;1.20;;;0.70;;
34278;SDS011;20538;51.528;9.942;2023-07-20T11:39:09;1.83;;;0.85;;
34278;SDS011;20538;51.528;9.942;2023-07-20T11:41:36;4.32;;;1.15;;
34278;SDS011;20538;51.528;9.942;2023-07-20T11:44:03;0.85;;;0.60;;
34278;SDS011;20538;51.528;9.942;2023-07-20T11:46:31;1.90;;;0.90;;
34278;SDS011;20538;51.528;9.942;2023-07-20T11:49:00;1.13;;;0.60;;
34278;SDS011;20538;51.528;9.942;2023-07-20T11:51:26;1.48;;;0.60;;
34278;SDS011;20538;51.528;9.942;2023-07-20T11:53:56;1.05;;;0.73;;
34278;SDS011;20538;51.528;9.942;2023-07-20T11:56:25;0.50;;;0.40;;
34278;SDS011;20538;51.528;9.942;2023-07-20T11:58:55;0.95;;;0.50;;
34278;SDS011;20538;51.528;9.942;2023-07-20T12:01:25;3.53;;;0.47;;
34278;SDS011;20538;51.528;9.942;2023-07-20T12:03:56;1.45;;;0.57;;
34278;SDS011;20538;51.528;9.942;2023-07-20T12:06:25;1.42;;;0.52;;
34278;SDS011;20538;51.528;9.942;2023-07-20T12:08:54;4.68;;;0.80;;
34278;SDS011;20538;51.528;9.942;2023-07-20T12:11:36;0.65;;;0.60;;
34278;SDS011;20538;51.528;9.942;2023-07-20T12:14:06;4.88;;;0.85;;
34278;SDS011;20538;51.528;9.942;2023-07-20T12:16:33;1.25;;;0.60;;
34278;SDS011;20538;51.528;9.942;2023-07-20T12:19:07;2.08;;;0.60;;
34278;SDS011;20538;51.528;9.942;2023-07-20T12:21:39;1.15;;;0.70;;
34278;SDS011;20538;51.528;9.942;2023-07-20T12:24:07;0.65;;;0.57;;
34278;SDS011;20538;51.528;9.942;2023-07-20T12:26:36;0.50;;;0.50;;
34278;SDS011;20538;51.528;9.942;2023-07-20T12:29:02;2.05;;;0.55;;
34278;SDS011;20538;51.528;9.942;2023-07-20T12:31:29;2.80;;;0.70;;
34278;SDS011;20538;51.528;9.942;2023-07-20T12:33:56;0.85;;;0.60;;
34278;SDS011;20538;51.528;9.942;2023-07-20T12:36:23;7.68;;;0.57;;
34278;SDS011;20538;51.528;9.942;2023-07-20T12:38:49;0.63;;;0.50;;
34278;SDS011;20538;51.528;9.942;2023-07-20T12:41:15;0.63;;;0.63;;
34278;SDS011;20538;51.528;9.942;2023-07-20T12:43:41;0.68;;;0.60;;
34278;SDS011;20538;51.528;9.942;2023-07-20T12:46:07;0.88;;;0.70;;
34278;SDS011;20538;51.528;9.942;2023-07-20T12:48:36;1.33;;;0.70;;
34278;SDS011;20538;51.528;9.942;2023-07-20T12:51:02;10.25;;;4.90;;
34278;SDS011;20538;51.528;9.942;2023-07-20T12:53:28;3.45;;;2.13;;
34278;SDS011;20538;51.528;9.942;2023-07-20T12:55:55;1.33;;;0.63;;
34278;SDS011;20538;51.528;9.942;2023-07-20T12:58:21;0.82;;;0.60;;
34278;SDS011;20538;51.528;9.942;2023-07-20T13:00:46;1.58;;;0.63;;
34278;SDS011;20538;51.528;9.942;2023-07-20T13:03:12;1.23;;;0.50;;
34278;SDS011;20538;51.528;9.942;2023-07-20T13:05:38;0.70;;;0.60;;
34278;SDS011;20538;51.528;9.942;2023-07-20T13:08:04;0.95;;;0.43;;
34278;SDS011;20538;51.528;9.942;2023-07-20T13:10:31;0.60;;;0.60;;
34278;SDS011;20538;51.528;9.942;2023-07-20T13:12:57;3.05;;;0.52;;
34278;SDS011;20538;51.528;9.942;2023-07-20T13:15:24;0.63;;;0.60;;
34278;SDS011;20538;51.528;9.942;2023-07-20T13:17:58;0.85;;;0.85;;
34278;SDS011;20538;51.528;9.942;2023-07-20T13:20:25;3.10;;;0.65;;
34278;SDS011;20538;51.528;9.942;2023-07-20T13:22:53;1.60;;;0.43;;
34278;SDS011;20538;51.528;9.942;2023-07-20T13:25:18;1.65;;;0.50;;
34278;SDS011;20538;51.528;9.942;2023-07-20T13:27:44;2.45;;;0.68;;
34278;SDS011;20538;51.528;9.942;2023-07-20T13:30:11;1.85;;;0.70;;
34278;SDS011;20538;51.528;9.942;2023-07-20T13:32:42;3.33;;;1.35;;
34278;SDS011;20538;51.528;9.942;2023-07-20T13:35:09;2.42;;;0.60;;
34278;SDS011;20538;51.528;9.942;2023-07-20T13:37:35;0.80;;;0.50;;
34278;SDS011;20538;51.528;9.942;2023-07-20T13:40:00;1.60;;;0.50;;
34278;SDS011;20538;51.528;9.942;2023-07-20T13:42:26;1.13;;;0.60;;
34278;SDS011;20538;51.528;9.942;2023-07-20T13:44:52;1.58;;;0.75;;
34278;SDS011;20538;51.528;9.942;2023-07-20T13:47:17;0.73;;;0.70;;
34278;SDS011;20538;51.528;9.942;2023-07-20T13:49:43;0.50;;;0.50;;
34278;SDS011;20538;51.528;9.942;2023-07-20T13:52:09;1.80;;;0.63;;
34278;SDS011;20538;51.528;9.942;2023-07-20T13:54:34;1.45;;;0.60;;
34278;SDS011;20538;51.528;9.942;2023-07-20T13:57:00;1.08;;;0.60;;
34278;SDS011;20538;51.528;9.942;2023-07-20T13:59:26;1.58;;;1.00;;
34278;SDS011;20538;51.528;9.942;2023-07-20T14:01:51;0.90;;;0.60;;
34278;SDS011;20538;51.528;9.942;2023-07-20T14:04:17;0.60;;;0.60;;
34278;SDS011;20538;51.528;9.942;2023-07-20T14:06:42;2.95;;;0.60;;
34278;SDS011;20538;51.528;9.942;2023-07-20T14:09:09;0.75;;;0.60;;
34278;SDS011;20538;51.528;9.942;2023-07-20T14:11:34;0.80;;;0.55;;
34278;SDS011;20538;51.528;9.942;2023-07-20T14:14:00;1.77;;;0.60;;
34278;SDS011;20538;51.528;9.942;2023-07-20T14:16:26;1.30;;;0.55;;
34278;SDS011;20538;51.528;9.942;2023-07-20T14:18:52;1.73;;;0.50;;
34278;SDS011;20538;51.528;9.942;2023-07-20T14:21:19;0.65;;;0.50;;
34278;SDS011;20538;51.528;9.942;2023-07-20T14:23:46;0.90;;;0.60;;
34278;SDS011;20538;51.528;9.942;2023-07-20T14:26:14;1.75;;;0.50;;
34278;SDS011;20538;51.528;9.942;2023-07-20T14:28:43;0.52;;;0.52;;
34278;SDS011;20538;51.528;9.942;2023-07-20T14:31:09;1.25;;;0.60;;
34278;SDS011;20538;51.528;9.942;2023-07-20T14:33:35;0.82;;;0.57;;
34278;SDS011;20538;51.528;9.942;2023-07-20T14:36:01;0.60;;;0.50;;
34278;SDS011;20538;51.528;9.942;2023-07-20T14:38:30;1.42;;;0.50;;
34278;SDS011;20538;51.528;9.942;2023-07-20T14:40:56;0.70;;;0.50;;
34278;SDS011;20538;51.528;9.942;2023-07-20T14:43:22;0.80;;;0.50;;
34278;SDS011;20538;51.528;9.942;2023-07-20T14:45:48;1.48;;;0.68;;
34278;SDS011;20538;51.528;9.942;2023-07-20T14:48:13;1.58;;;0.40;;
34278;SDS011;20538;51.528;9.942;2023-07-20T14:50:39;2.92;;;0.63;;
34278;SDS011;20538;51.528;9.942;2023-07-20T14:53:05;1.77;;;0.43;;
34278;SDS011;20538;51.528;9.942;2023-07-20T14:55:31;0.82;;;0.50;;
34278;SDS011;20538;51.528;9.942;2023-07-20T14:57:57;0.93;;;0.63;;
34278;SDS011;20538;51.528;9.942;2023-07-20T15:00:23;0.73;;;0.52;;
34278;SDS011;20538;51.528;9.942;2023-07-20T15:02:49;0.80;;;0.70;;
34278;SDS011;20538;51.528;9.942;2023-07-20T15:05:21;1.35;;;0.50;;
34278;SDS011;20538;51.528;9.942;2023-07-20T15:07:47;1.25;;;0.50;;